Last 30 Days

Top of 15

Hourly Data | America/Los_Angeles
as of 12/1/22 9:22 PM PST
Date & Time Temp (°F) RH (%) Dew Pt (°F) Wet Bulb (°F) Wind Dir (°) Wind Spd (mph) Wind Gust (mph) Wind Gst Dir (°) Daily Min Temp (°F) Daily Max Temp (°F) Daily Max Wind (mph)
12/1/22 - 2100 22.7 90 20.3 21.9 N | 0 0.0 0.0 N | 0 18.8 25.8 0.0
12/1/22 - 2000 22.0 91 19.7 21.2 N | 0 0.0 0.0 N | 0 18.8 25.8 0.0
12/1/22 - 1900 21.8 90 19.3 21.0 N | 0 0.0 0.0 N | 0 18.8 25.8 0.0
12/1/22 - 1800 21.8 89 19.1 20.9 N | 0 0.0 0.0 N | 0 18.8 25.8 0.0
12/1/22 - 1700 22.2 89 19.4 21.3 N | 0 0.0 0.0 N | 0 18.8 25.8 0.0
12/1/22 - 1600 22.5 89 19.8 21.6 N | 0 0.0 0.0 N | 0 18.8 25.8 0.0
12/1/22 - 1500 22.6 89 19.8 21.6 N | 0 0.0 0.0 N | 0 18.8 25.8 0.0
12/1/22 - 1400 22.8 85 19.1 21.6 N | 0 0.0 0.0 N | 0 18.8 25.8 0.0
12/1/22 - 1300 23.3 83 19.0 21.9 N | 0 0.0 0.0 N | 0 18.8 25.8 0.0
12/1/22 - 1200 23.5 82 19.0 22.0 N | 0 0.0 0.0 N | 0 18.8 25.8 0.0
12/1/22 - 1100 22.7 85 18.8 21.5 N | 0 0.0 0.0 N | 0 18.8 25.8 0.0
12/1/22 - 1000 22.2 85 18.4 21.0 N | 0 0.0 0.0 N | 0 18.8 25.8 0.0
12/1/22 - 0900 22.6 84 18.5 21.3 N | 0 0.0 0.0 N | 0 18.8 25.8 0.0
12/1/22 - 0800 20.8 88 18.0 19.9 N | 0 0.0 0.0 N | 0 18.8 25.8 0.0
12/1/22 - 0700 20.5 89 17.8 19.7 N | 0 0.0 0.0 N | 0 18.8 25.8 0.0
12/1/22 - 0600 20.7 81 15.6 19.2 N | 0 0.0 0.0 N | 0 18.8 25.8 0.0
12/1/22 - 0500 23.6 60 11.7 20.4 N | 0 0.0 0.0 N | 0 22.4 25.8 0.0
12/1/22 - 0400 24.4 55 10.6 20.7 N | 0 0.0 0.0 N | 0 23.5 25.8 0.0
12/1/22 - 0300 24.0 58 11.4 20.6 N | 0 0.0 0.0 N | 0 23.5 25.8 0.0
12/1/22 - 0200 24.1 57 11.0 20.6 N | 0 0.0 0.0 N | 0 23.5 25.8 0.0
12/1/22 - 0100 25.0 57 11.8 21.4 N | 0 0.0 0.0 N | 0 24.2 25.8 0.0
12/1/22 - 0000 24.4 63 13.6 21.4 N | 0 0.0 0.0 N | 0 22.7 32.9 0.0
11/30/22 - 2300 23.3 72 15.5 21.0 N | 0 0.0 0.0 N | 0 22.7 32.9 0.0
11/30/22 - 2200 23.6 68 14.7 21.1 N | 0 0.0 0.0 N | 0 22.7 32.9 0.0
11/30/22 - 2100 23.0 72 15.4 20.8 N | 0 0.0 0.0 N | 0 22.7 32.9 0.0
11/30/22 - 2000 23.2 69 14.6 20.8 N | 0 0.0 0.0 N | 0 22.9 32.9 0.0
11/30/22 - 1900 23.6 67 14.3 21.0 N | 0 0.0 0.0 N | 0 23.3 32.9 0.0
11/30/22 - 1800 25.2 60 13.2 21.8 N | 0 0.0 0.0 N | 0 24.1 32.9 0.0
11/30/22 - 1700 26.9 48 9.9 22.4 N | 0 0.0 0.0 N | 0 25.9 32.9 0.0
11/30/22 - 1600 28.3 46 10.0 23.3 N | 0 0.0 0.0 N | 0 26.5 32.9 0.0
11/30/22 - 1500 29.5 42 9.2 24.0 N | 0 0.0 0.0 N | 0 26.5 32.9 0.0
11/30/22 - 1400 30.8 32 4.1 24.0 N | 0 0.0 0.0 N | 0 26.5 32.9 0.0
11/30/22 - 1300 31.8 25 -0.2 24.1 N | 0 0.0 0.0 N | 0 26.5 32.9 0.0
11/30/22 - 1200 32.1 21 -3.3 23.9 N | 0 0.0 0.0 N | 0 26.5 32.9 0.0
11/30/22 - 1100 32.3 18 -6.5 23.8 N | 0 0.0 0.0 N | 0 26.5 32.9 0.0
11/30/22 - 1000 30.8 20 -6.1 22.8 N | 0 0.0 0.0 N | 0 26.5 32.9 0.0
11/30/22 - 0900 29.0 22 -5.2 21.6 N | 0 0.0 0.0 N | 0 26.5 32.9 0.0
11/30/22 - 0800 27.9 28 -1.4 21.3 N | 0 0.0 0.0 N | 0 26.5 32.9 0.0
11/30/22 - 0700 27.2 29 -0.7 20.9 N | 0 0.0 0.0 N | 0 26.5 32.9 0.0
11/30/22 - 0600 27.9 26 -2.4 21.2 N | 0 0.0 0.0 N | 0 27.4 32.9 0.0
11/30/22 - 0500 29.1 25 -2.1 22.0 N | 0 0.0 0.0 N | 0 27.8 32.9 0.0
11/30/22 - 0400 29.3 24 -3.2 22.1 N | 0 0.0 0.0 N | 0 28.6 32.9 0.0
11/30/22 - 0300 31.4 25 -0.5 23.8 N | 0 0.0 0.0 N | 0 29.9 32.9 0.0
11/30/22 - 0200 32.3 24 -0.1 24.4 N | 0 0.0 0.0 N | 0 31.6 32.9 0.0
11/30/22 - 0100 32.1 24 -0.7 24.2 N | 0 0.0 0.0 N | 0 31.8 32.7 0.0
11/30/22 - 0000 32.3 23 -1.2 24.3 N | 0 0.0 0.0 N | 0 22.1 37.6 0.0
11/29/22 - 2300 30.1 24 -2.0 22.7 N | 0 0.0 0.0 N | 0 22.1 37.6 0.0
11/29/22 - 2200 26.3 27 -2.8 20.0 N | 0 0.0 0.0 N | 0 22.1 37.6 0.0
11/29/22 - 2100 28.9 26 -1.5 22.0 N | 0 0.0 0.0 N | 0 22.1 37.6 0.0
11/29/22 - 2000 33.6 23 0.1 25.3 N | 0 0.0 0.0 N | 0 22.1 37.6 0.0
11/29/22 - 1900 33.6 23 -0.1 25.3 N | 0 0.0 0.0 N | 0 22.1 37.6 0.0
11/29/22 - 1800 34.5 23 0.7 25.9 N | 0 0.0 0.0 N | 0 22.1 37.6 0.0
11/29/22 - 1700 35.5 26 3.7 27.0 N | 0 0.0 0.0 N | 0 22.1 37.6 0.0
11/29/22 - 1600 35.6 22 0.0 26.6 N | 0 0.0 0.0 N | 0 22.1 37.6 0.0
11/29/22 - 1500 35.8 17 -4.8 26.2 N | 0 0.0 0.0 N | 0 22.1 37.6 0.0
11/29/22 - 1400 35.3 15 -8.0 25.6 N | 0 0.0 0.0 N | 0 22.1 37.1 0.0
11/29/22 - 1300 35.0 10 -15.4 24.8 N | 0 0.0 0.0 N | 0 22.1 36.9 0.0
11/29/22 - 1200 34.9 11 -15.0 24.8 N | 0 0.0 0.0 N | 0 22.1 35.9 0.0
11/29/22 - 1100 34.1 10 -16.6 24.1 N | 0 0.0 0.0 N | 0 22.1 35.5 0.0
11/29/22 - 1000 32.7 13 -12.6 23.5 N | 0 0.0 0.0 N | 0 22.1 34.8 0.0
11/29/22 - 0900 29.9 16 -11.1 21.7 N | 0 0.0 0.0 N | 0 22.1 32.1 0.0
11/29/22 - 0800 26.2 19 -10.8 19.2 N | 0 0.0 0.0 N | 0 22.1 32.0 0.0
11/29/22 - 0700 23.6 25 -7.4 17.6 N | 0 0.0 0.0 N | 0 22.1 32.0 0.0
11/29/22 - 0600 27.2 20 -8.4 20.1 N | 0 0.0 0.0 N | 0 23.8 32.0 0.0
11/29/22 - 0500 27.4 19 -9.5 20.1 N | 0 0.0 0.0 N | 0 23.8 32.0 0.0
11/29/22 - 0400 29.4 13 -15.6 21.0 N | 0 0.0 0.0 N | 0 23.8 32.0 0.0
11/29/22 - 0300 26.7 12 -19.1 19.0 N | 0 0.0 0.0 N | 0 23.8 29.0 0.0
11/29/22 - 0200 25.7 12 -19.4 18.3 N | 0 0.0 0.0 N | 0 23.8 26.3 0.0
11/29/22 - 0100 24.4 14 -17.4 17.4 N | 0 0.0 0.0 N | 0 23.8 25.4 0.0
11/29/22 - 0000 23.9 19 -13.1 17.4 N | 0 0.0 0.0 N | 0 20.9 32.0 0.0
11/28/22 - 2300 23.8 26 -6.3 17.9 N | 0 0.0 0.0 N | 0 20.9 32.0 0.0
11/28/22 - 2200 23.2 39 1.2 18.4 N | 0 0.0 0.0 N | 0 20.9 32.0 0.0
11/28/22 - 2100 21.8 57 8.9 18.5 N | 0 0.0 0.0 N | 0 20.9 32.0 0.0
11/28/22 - 2000 21.6 64 11.1 18.9 N | 0 0.0 0.0 N | 0 20.9 32.0 0.0
11/28/22 - 1900 22.6 65 12.5 19.9 N | 0 0.0 0.0 N | 0 22.2 32.0 0.0
11/28/22 - 1800 23.5 67 14.0 20.8 N | 0 0.0 0.0 N | 0 22.9 32.0 0.0
11/28/22 - 1700 23.9 75 17.0 21.8 N | 0 0.0 0.0 N | 0 23.3 32.0 0.0
11/28/22 - 1600 25.0 74 18.0 22.8 N | 0 0.0 0.0 N | 0 24.2 32.0 0.0
11/28/22 - 1500 25.7 72 17.8 23.2 N | 0 0.0 0.0 N | 0 25.4 32.0 0.0
11/28/22 - 1400 26.8 68 17.7 23.9 N | 0 0.0 0.0 N | 0 25.6 33.4 0.0
11/28/22 - 1300 27.2 68 18.2 24.4 N | 0 0.0 0.0 N | 0 25.6 33.4 0.0
11/28/22 - 1200 26.7 77 20.5 24.6 N | 0 0.0 0.0 N | 0 25.6 33.4 0.0
11/28/22 - 1100 26.0 76 19.5 23.9 N | 0 0.0 0.0 N | 0 25.6 33.4 0.0
11/28/22 - 1000 26.5 70 18.1 23.8 N | 0 0.0 0.0 N | 0 26.3 33.4 0.0
11/28/22 - 0900 27.2 62 16.0 23.8 N | 0 0.0 0.0 N | 0 26.6 33.4 0.0
11/28/22 - 0800 27.5 52 12.3 23.2 N | 0 0.0 0.0 N | 0 27.2 33.4 0.0
11/28/22 - 0700 28.0 42 7.9 22.7 N | 0 0.0 0.0 N | 0 27.6 33.4 0.0
11/28/22 - 0600 28.9 44 9.9 23.7 N | 0 0.0 0.0 N | 0 28.4 33.4 0.0
11/28/22 - 0500 29.2 36 5.3 23.1 N | 0 0.0 0.0 N | 0 28.6 33.4 0.0
11/28/22 - 0400 29.8 22 -4.1 22.3 N | 0 0.0 0.0 N | 0 29.4 33.4 0.0
11/28/22 - 0300 30.7 13 -14.1 22.1 N | 0 0.0 0.0 N | 0 30.1 33.4 0.0
11/28/22 - 0200 31.7 9 -21.9 22.3 N | 0 0.0 0.0 N | 0 31.0 33.4 0.0
11/28/22 - 0100 32.5 8 -23.6 22.7 N | 0 0.0 0.0 N | 0 31.7 33.4 0.0
11/28/22 - 0000 33.0 9 -20.2 23.2 N | 0 0.0 0.0 N | 0 31.8 43.5 0.0
11/27/22 - 2300 33.4 11 -16.0 23.7 N | 0 0.0 0.0 N | 0 31.8 43.5 0.0
11/27/22 - 2200 33.7 9 -18.7 23.8 N | 0 0.0 0.0 N | 0 31.8 43.5 0.0
11/27/22 - 2100 34.1 7 -23.5 23.8 N | 0 0.0 0.0 N | 0 31.8 43.5 0.0
11/27/22 - 2000 34.2 7 -23.4 23.8 N | 0 0.0 0.0 N | 0 31.8 43.5 0.0
11/27/22 - 1900 34.2 11 -15.1 24.4 N | 0 0.0 0.0 N | 0 31.8 43.5 0.0
11/27/22 - 1800 34.6 20 -2.5 25.7 N | 0 0.0 0.0 N | 0 31.8 43.5 0.0
11/27/22 - 1700 36.0 28 6.2 27.7 N | 0 0.0 0.0 N | 0 31.8 43.5 0.0
11/27/22 - 1600 38.2 26 6.3 29.1 N | 0 0.0 0.0 N | 0 31.8 43.5 0.0
11/27/22 - 1500 40.8 21 4.2 30.4 N | 0 0.0 0.0 N | 0 31.8 43.5 0.0
11/27/22 - 1400 41.1 17 -0.7 29.9 N | 0 0.0 0.0 N | 0 31.8 43.5 0.0
11/27/22 - 1300 41.6 14 -4.2 29.8 N | 0 0.0 0.0 N | 0 31.8 43.5 0.0
11/27/22 - 1200 42.0 12 -6.3 29.8 N | 0 0.0 0.0 N | 0 31.8 43.5 0.0
11/27/22 - 1100 42.5 11 -8.3 30.0 N | 0 0.0 0.0 N | 0 31.8 43.5 0.0
11/27/22 - 1000 41.8 12 -7.7 29.6 N | 0 0.0 0.0 N | 0 31.8 42.6 0.0
11/27/22 - 0900 40.1 9 -13.6 28.1 N | 0 0.0 0.0 N | 0 31.8 41.2 0.0
11/27/22 - 0800 38.4 10 -12.7 27.1 N | 0 0.0 0.0 N | 0 31.8 40.5 0.0
11/27/22 - 0700 37.4 12 -11.0 26.6 N | 0 0.0 0.0 N | 0 31.8 40.5 0.0
11/27/22 - 0600 36.7 10 -14.9 25.9 N | 0 0.0 0.0 N | 0 31.8 40.5 0.0
11/27/22 - 0500 38.1 10 -13.7 26.9 N | 0 0.0 0.0 N | 0 31.8 40.5 0.0
11/27/22 - 0400 36.6 13 -10.3 26.2 N | 0 0.0 0.0 N | 0 31.8 40.3 0.0
11/27/22 - 0300 37.4 9 -15.7 26.3 N | 0 0.0 0.0 N | 0 31.8 39.9 0.0
11/27/22 - 0200 37.9 7 -20.2 26.4 N | 0 0.0 0.0 N | 0 31.8 39.9 0.0
11/27/22 - 0100 34.7 8 -21.4 24.2 N | 0 0.0 0.0 N | 0 31.8 38.1 0.0
11/27/22 - 0000 31.5 9 -20.3 22.2 N | 0 0.0 0.0 N | 0 25.3 43.8 0.0
11/26/22 - 2300 30.3 11 -19.2 21.5 N | 0 0.0 0.0 N | 0 25.3 43.8 0.0
11/26/22 - 2200 28.8 17 -11.8 21.0 N | 0 0.0 0.0 N | 0 25.3 43.8 0.0
11/26/22 - 2100 26.4 60 13.4 22.9 N | 0 0.0 0.0 N | 0 25.3 43.8 0.0
11/26/22 - 2000 27.0 73 19.6 24.6 N | 0 0.0 0.0 N | 0 25.7 43.8 0.0
11/26/22 - 1900 27.3 73 19.9 24.9 N | 0 0.0 0.0 N | 0 26.4 43.8 0.0
11/26/22 - 1800 27.9 69 18.9 25.0 N | 0 0.0 0.0 N | 0 26.7 43.8 0.0
11/26/22 - 1700 29.6 65 19.2 26.2 N | 0 0.0 0.0 N | 0 27.2 43.8 0.0
11/26/22 - 1600 33.9 56 19.9 29.2 N | 0 0.0 0.0 N | 0 31.0 43.8 0.0
11/26/22 - 1500 40.2 40 17.4 32.5 N | 0 0.0 0.0 N | 0 35.9 43.8 0.0
11/26/22 - 1400 41.9 33 14.8 32.8 N | 0 0.0 0.0 N | 0 35.9 43.8 0.0
11/26/22 - 1300 41.2 34 15.1 32.5 N | 0 0.0 0.0 N | 0 35.9 43.8 0.0
11/26/22 - 1200 37.8 34 12.1 29.8 N | 0 0.0 0.0 N | 0 35.9 40.6 0.0
11/26/22 - 1100 37.3 28 6.8 28.6 N | 0 0.0 0.0 N | 0 35.9 39.9 0.0
11/26/22 - 1000 37.1 21 1.1 27.7 N | 0 0.0 0.0 N | 0 35.9 39.9 0.0
11/26/22 - 0900 37.1 23 2.4 27.8 N | 0 0.0 0.0 N | 0 35.9 39.9 0.0
11/26/22 - 0800 36.4 21 -0.1 27.1 N | 0 0.0 0.0 N | 0 35.9 39.9 0.0
11/26/22 - 0700 36.6 24 2.8 27.6 N | 0 0.0 0.0 N | 0 36.2 39.9 0.0
11/26/22 - 0600 37.3 25 4.5 28.2 N | 0 0.0 0.0 N | 0 36.7 39.9 0.0
11/26/22 - 0500 37.8 22 2.8 28.3 N | 0 0.0 0.0 N | 0 37.3 39.9 0.0
11/26/22 - 0400 38.4 18 -0.9 28.2 N | 0 0.0 0.0 N | 0 37.8 39.9 0.0
11/26/22 - 0300 39.5 15 -4.8 28.5 N | 0 0.0 0.0 N | 0 38.4 39.9 0.0
11/26/22 - 0200 39.2 16 -3.7 28.4 N | 0 0.0 0.0 N | 0 38.4 39.7 0.0
11/26/22 - 0100 38.9 19 0.1 28.6 N | 0 0.0 0.0 N | 0 38.4 39.3 0.0
11/26/22 - 0000 39.5 20 1.4 29.2 N | 0 0.0 0.0 N | 0 32.7 50.9 0.0
11/25/22 - 2300 40.2 20 2.3 29.7 N | 0 0.0 0.0 N | 0 32.7 50.9 0.0
11/25/22 - 2200 40.6 22 4.6 30.3 N | 0 0.0 0.0 N | 0 32.7 50.9 0.0
11/25/22 - 2100 40.2 29 10.4 31.0 N | 0 0.0 0.0 N | 0 32.7 50.9 0.0
11/25/22 - 2000 40.1 31 12.0 31.2 N | 0 0.0 0.0 N | 0 32.7 50.9 0.0
11/25/22 - 1900 41.2 29 11.4 31.7 N | 0 0.0 0.0 N | 0 32.7 50.9 0.0
11/25/22 - 1800 41.8 28 10.8 32.0 N | 0 0.0 0.0 N | 0 32.7 50.9 0.0
11/25/22 - 1700 42.8 27 10.8 32.6 N | 0 0.0 0.0 N | 0 32.7 50.9 0.0
11/25/22 - 1600 43.5 28 12.6 33.3 N | 0 0.0 0.0 N | 0 32.7 50.9 0.0
11/25/22 - 1500 47.4 22 10.3 35.1 N | 0 0.0 0.0 N | 0 32.7 50.9 0.0
11/25/22 - 1400 47.3 21 9.1 34.8 N | 0 0.0 0.0 N | 0 32.7 50.9 0.0
11/25/22 - 1300 48.0 19 8.0 35.0 N | 0 0.0 0.0 N | 0 32.7 50.9 0.0
11/25/22 - 1200 47.2 19 6.8 34.4 N | 0 0.0 0.0 N | 0 32.7 50.9 0.0
11/25/22 - 1100 48.7 17 6.1 35.1 N | 0 0.0 0.0 N | 0 32.7 50.9 0.0
11/25/22 - 1000 46.7 18 5.7 33.9 N | 0 0.0 0.0 N | 0 32.7 48.2 0.0
11/25/22 - 0900 44.5 20 5.5 32.7 N | 0 0.0 0.0 N | 0 32.7 45.8 0.0
11/25/22 - 0800 42.3 21 4.7 31.3 N | 0 0.0 0.0 N | 0 32.7 44.0 0.0
11/25/22 - 0700 39.3 23 4.2 29.4 N | 0 0.0 0.0 N | 0 32.7 42.7 0.0
11/25/22 - 0600 41.2 20 3.5 30.5 N | 0 0.0 0.0 N | 0 32.7 42.7 0.0
11/25/22 - 0500 41.1 20 2.9 30.4 N | 0 0.0 0.0 N | 0 32.7 42.7 0.0
11/25/22 - 0400 36.6 23 2.5 27.5 N | 0 0.0 0.0 N | 0 32.7 42.7 0.0
11/25/22 - 0300 40.4 21 3.1 30.0 N | 0 0.0 0.0 N | 0 32.7 42.7 0.0
11/25/22 - 0200 35.7 25 3.7 27.2 N | 0 0.0 0.0 N | 0 32.7 37.5 0.0
11/25/22 - 0100 33.7 26 2.1 25.6 N | 0 0.0 0.0 N | 0 32.7 35.0 0.0
11/25/22 - 0000 34.0 25 1.9 25.8 N | 0 0.0 0.0 N | 0 28.8 45.4 0.0
11/24/22 - 2300 34.0 26 2.8 25.9 N | 0 0.0 0.0 N | 0 28.8 45.4 0.0
11/24/22 - 2200 34.5 27 3.7 26.4 N | 0 0.0 0.0 N | 0 28.8 45.4 0.0
11/24/22 - 2100 34.7 25 2.4 26.3 N | 0 0.0 0.0 N | 0 28.8 45.4 0.0
11/24/22 - 2000 34.3 24 1.7 26.0 N | 0 0.0 0.0 N | 0 28.8 45.4 0.0
11/24/22 - 1900 34.4 25 2.0 26.1 N | 0 0.0 0.0 N | 0 28.8 45.4 0.0
11/24/22 - 1800 34.6 25 2.6 26.2 N | 0 0.0 0.0 N | 0 28.8 45.4 0.0
11/24/22 - 1700 35.6 25 3.1 27.0 N | 0 0.0 0.0 N | 0 28.8 45.4 0.0
11/24/22 - 1600 38.5 23 4.2 28.9 N | 0 0.0 0.0 N | 0 28.8 45.4 0.0
11/24/22 - 1500 42.4 20 4.4 31.3 N | 0 0.0 0.0 N | 0 28.8 45.4 0.0
11/24/22 - 1400 43.6 17 1.9 31.7 N | 0 0.0 0.0 N | 0 28.8 45.4 0.0
11/24/22 - 1300 43.3 17 1.7 31.4 N | 0 0.0 0.0 N | 0 28.8 44.4 0.0
11/24/22 - 1200 41.6 18 1.6 30.5 N | 0 0.0 0.0 N | 0 28.8 42.9 0.0
11/24/22 - 1100 40.7 15 -4.0 29.3 N | 0 0.0 0.0 N | 0 28.8 42.4 0.0
11/24/22 - 1000 39.1 13 -7.9 28.0 N | 0 0.0 0.0 N | 0 28.8 40.4 0.0
11/24/22 - 0900 37.5 12 -11.3 26.7 N | 0 0.0 0.0 N | 0 28.8 39.4 0.0
11/24/22 - 0800 34.0 11 -15.7 24.1 N | 0 0.0 0.0 N | 0 28.8 36.7 0.0
11/24/22 - 0700 30.0 14 -14.0 21.6 N | 0 0.0 0.0 N | 0 28.8 33.5 0.0
11/24/22 - 0600 31.0 13 -14.0 22.3 N | 0 0.0 0.0 N | 0 29.0 33.5 0.0
11/24/22 - 0500 30.6 16 -10.9 22.2 N | 0 0.0 0.0 N | 0 29.0 33.5 0.0
11/24/22 - 0400 30.4 17 -9.5 22.2 N | 0 0.0 0.0 N | 0 29.0 33.5 0.0
11/24/22 - 0300 31.0 18 -7.9 22.8 N | 0 0.0 0.0 N | 0 29.0 33.5 0.0
11/24/22 - 0200 32.4 12 -14.3 23.2 N | 0 0.0 0.0 N | 0 30.5 33.5 0.0
11/24/22 - 0100 32.1 13 -12.8 23.1 N | 0 0.0 0.0 N | 0 30.5 33.2 0.0
11/24/22 - 0000 30.2 22 -4.4 22.5 N | 0 0.0 0.0 N | 0 28.6 44.0 0.0
11/23/22 - 2300 31.0 24 -1.8 23.4 N | 0 0.0 0.0 N | 0 28.6 44.0 0.0
11/23/22 - 2200 32.7 21 -3.5 24.3 N | 0 0.0 0.0 N | 0 28.6 44.0 0.0
11/23/22 - 2100 31.8 26 0.6 24.2 N | 0 0.0 0.0 N | 0 28.6 44.0 0.0
11/23/22 - 2000 30.2 33 4.2 23.6 N | 0 0.0 0.0 N | 0 28.6 44.0 0.0
11/23/22 - 1900 31.8 24 -0.7 24.0 N | 0 0.0 0.0 N | 0 28.6 44.0 0.0
11/23/22 - 1800 33.3 20 -3.3 24.7 N | 0 0.0 0.0 N | 0 28.6 44.0 0.0
11/23/22 - 1700 34.5 22 -0.2 25.8 N | 0 0.0 0.0 N | 0 28.6 44.0 0.0
11/23/22 - 1600 37.4 19 -1.6 27.5 N | 0 0.0 0.0 N | 0 28.6 44.0 0.0
11/23/22 - 1500 41.5 18 1.0 30.3 N | 0 0.0 0.0 N | 0 28.6 44.0 0.0
11/23/22 - 1400 42.7 14 -3.1 30.6 N | 0 0.0 0.0 N | 0 28.6 44.0 0.0
11/23/22 - 1300 42.0 14 -3.5 30.1 N | 0 0.0 0.0 N | 0 28.6 43.4 0.0
11/23/22 - 1200 41.5 14 -4.2 29.7 N | 0 0.0 0.0 N | 0 28.6 43.0 0.0
11/23/22 - 1100 40.5 17 -1.3 29.5 N | 0 0.0 0.0 N | 0 28.6 41.2 0.0
11/23/22 - 1000 39.4 18 -1.0 28.8 N | 0 0.0 0.0 N | 0 28.6 41.2 0.0
11/23/22 - 0900 38.4 25 5.0 29.0 N | 0 0.0 0.0 N | 0 28.6 41.2 0.0
11/23/22 - 0800 35.1 29 6.1 27.1 N | 0 0.0 0.0 N | 0 28.6 38.2 0.0
11/23/22 - 0700 30.2 58 17.0 26.1 N | 0 0.0 0.0 N | 0 28.6 38.2 0.0
11/23/22 - 0600 31.2 56 17.3 26.8 N | 0 0.0 0.0 N | 0 29.3 38.2 0.0
11/23/22 - 0500 33.4 47 15.1 27.7 N | 0 0.0 0.0 N | 0 31.6 38.2 0.0
11/23/22 - 0400 36.1 29 5.9 27.8 N | 0 0.0 0.0 N | 0 32.9 38.2 0.0
11/23/22 - 0300 35.3 38 11.7 28.3 N | 0 0.0 0.0 N | 0 32.9 36.7 0.0
11/23/22 - 0200 34.2 53 19.0 29.1 N | 0 0.0 0.0 N | 0 32.9 35.4 0.0
11/23/22 - 0100 34.1 51 17.8 28.8 N | 0 0.0 0.0 N | 0 33.1 35.0 0.0
11/23/22 - 0000 35.0 40 13.0 28.3 N | 0 0.0 0.0 N | 0 29.6 46.1 0.0
11/22/22 - 2300 35.2 32 8.0 27.5 N | 0 0.0 0.0 N | 0 29.6 46.1 0.0
11/22/22 - 2200 34.8 32 7.8 27.2 N | 0 0.0 0.0 N | 0 29.6 46.1 0.0
11/22/22 - 2100 32.0 41 10.7 25.9 N | 0 0.0 0.0 N | 0 29.6 46.1 0.0
11/22/22 - 2000 31.9 38 9.3 25.6 N | 0 0.0 0.0 N | 0 29.6 46.1 0.0
11/22/22 - 1900 32.5 36 8.6 25.8 N | 0 0.0 0.0 N | 0 29.6 46.1 0.0
11/22/22 - 1800 34.0 41 12.5 27.5 N | 0 0.0 0.0 N | 0 29.6 46.1 0.0
11/22/22 - 1700 36.5 38 13.4 29.3 N | 0 0.0 0.0 N | 0 29.6 46.1 0.0
11/22/22 - 1600 41.3 27 9.6 31.5 N | 0 0.0 0.0 N | 0 29.6 46.1 0.0
11/22/22 - 1500 43.6 24 9.5 32.8 N | 0 0.0 0.0 N | 0 29.6 46.1 0.0
11/22/22 - 1400 43.9 23 8.2 32.8 N | 0 0.0 0.0 N | 5 29.6 46.1 0.0
11/22/22 - 1300 43.6 21 6.2 32.3 N | 0 0.0 0.0 N | 0 29.6 44.5 0.0
11/22/22 - 1200 43.1 18 2.1 31.4 N | 0 0.0 0.0 NNE | 12 29.6 44.1 0.0
11/22/22 - 1100 42.3 15 -2.3 30.4 N | 0 0.0 0.0 N | 0 29.6 43.2 0.0
11/22/22 - 1000 40.8 14 -4.1 29.4 N | 0 0.0 0.0 N | 0 29.6 42.4 0.0
11/22/22 - 0900 39.2 13 -7.8 28.0 N | 0 0.0 0.0 N | 0 29.6 41.4 0.0
11/22/22 - 0800 35.5 12 -11.6 25.4 N | 0 0.0 0.0 N | 0 29.6 38.1 0.0
11/22/22 - 0700 31.7 16 -9.4 23.1 N | 0 0.0 0.0 N | 0 29.6 33.2 0.0
11/22/22 - 0600 31.4 13 -13.7 22.5 N | 0 0.0 0.0 N | 0 29.6 33.2 0.0
11/22/22 - 0500 31.3 14 -13.0 22.5 N | 0 0.0 0.0 N | 0 29.6 33.2 0.0
11/22/22 - 0400 31.6 13 -13.8 22.6 N | 0 0.0 0.0 N | 0 29.6 33.2 0.0
11/22/22 - 0300 31.6 12 -15.1 22.6 N | 0 0.0 0.0 N | 0 29.6 33.2 0.0
11/22/22 - 0200 31.9 12 -15.7 22.8 N | 0 0.0 0.0 N | 0 30.5 32.8 0.0
11/22/22 - 0100 31.1 12 -15.2 22.2 N | 0 0.0 0.0 N | 0 30.5 32.2 0.0
11/22/22 - 0000 30.9 13 -14.0 22.2 N | 0 0.0 0.0 N | 0 27.4 44.3 0.0
11/21/22 - 2300 31.0 15 -11.2 22.5 N | 0 0.0 0.0 N | 0 27.4 44.3 0.0
11/21/22 - 2200 30.3 20 -8.4 22.4 N | 0 0.0 0.0 N | 0 27.4 44.3 0.0
11/21/22 - 2100 31.9 13 -14.3 22.9 N | 0 0.0 0.0 N | 0 27.4 44.3 0.0
11/21/22 - 2000 31.8 16 -9.6 23.1 N | 0 0.0 0.0 N | 0 27.4 44.3 0.0
11/21/22 - 1900 32.3 15 -10.1 23.4 N | 0 0.0 0.0 N | 0 27.4 44.3 0.0
11/21/22 - 1800 32.7 19 -5.5 24.1 N | 0 0.0 0.0 N | 0 27.4 44.3 0.0
11/21/22 - 1700 34.2 20 -2.3 25.4 N | 0 0.0 0.0 N | 0 27.4 44.3 0.0
11/21/22 - 1600 38.4 18 -2.0 28.1 N | 0 0.0 0.0 N | 3 27.4 44.3 0.0
11/21/22 - 1500 40.3 11 -11.1 28.4 N | 0 0.0 0.0 N | 3 27.4 44.3 0.0
11/21/22 - 1400 41.2 11 -10.2 29.0 N | 0 0.0 0.0 NNE | 13 27.4 44.3 0.0
11/21/22 - 1300 41.9 12 -7.6 29.7 N | 0 0.0 0.0 N | 4 27.4 44.3 0.0
11/21/22 - 1200 41.2 11 -8.7 29.2 N | 0 0.0 0.0 N | 0 27.4 44.3 0.0
11/21/22 - 1100 41.6 11 -10.0 29.3 N | 0 0.0 0.0 N | 0 27.4 44.3 0.0
11/21/22 - 1000 40.0 11 -10.3 28.3 N | 0 0.0 0.0 N | 0 27.4 42.4 0.0
11/21/22 - 0900 38.9 9 -16.1 27.2 N | 0 0.0 0.0 N | 0 27.4 40.1 0.0
11/21/22 - 0800 36.4 8 -19.6 25.5 N | 0 0.0 0.0 N | 0 27.4 38.0 0.0
11/21/22 - 0700 34.4 14 -10.5 24.8 N | 0 0.0 0.0 N | 0 27.4 36.4 0.0
11/21/22 - 0600 33.3 23 -1.4 25.0 N | 0 0.0 0.0 N | 0 27.4 35.8 0.0
11/21/22 - 0500 32.3 29 2.1 24.8 N | 0 0.0 0.0 N | 0 27.4 35.8 0.0
11/21/22 - 0400 28.7 47 10.5 23.7 N | 0 0.0 0.0 N | 0 27.4 32.0 0.0
11/21/22 - 0300 28.4 51 12.4 23.9 N | 0 0.0 0.0 N | 0 27.4 32.0 0.0
11/21/22 - 0200 29.6 41 8.5 23.9 N | 0 0.0 0.0 N | 0 28.3 32.0 0.0
11/21/22 - 0100 30.2 42 9.6 24.6 N | 0 0.0 0.0 N | 0 28.9 32.0 0.0
11/21/22 - 0000 30.0 44 10.6 24.5 N | 0 0.0 0.0 N | 0 25.9 40.7 0.0
11/20/22 - 2300 30.2 46 11.9 25.0 N | 0 0.0 0.0 N | 0 25.9 40.7 0.0
11/20/22 - 2200 30.2 44 10.5 24.8 N | 0 0.0 0.0 N | 0 25.9 40.7 0.0
11/20/22 - 2100 30.3 47 12.5 25.1 N | 0 0.0 0.0 N | 0 25.9 40.7 0.0
11/20/22 - 2000 30.1 44 10.3 24.6 N | 0 0.0 0.0 N | 0 25.9 40.7 0.0
11/20/22 - 1900 31.8 14 -12.6 22.9 N | 0 0.0 0.0 N | 0 25.9 40.7 0.0
11/20/22 - 1800 31.2 16 -10.4 22.7 N | 0 0.0 0.0 N | 0 25.9 40.7 0.0
11/20/22 - 1700 32.3 20 -4.9 23.9 N | 0 0.0 0.0 N | 0 25.9 40.7 0.0
11/20/22 - 1600 35.0 17 -5.3 25.6 N | 0 0.0 0.0 N | 0 25.9 40.7 0.0
11/20/22 - 1500 38.8 10 -13.4 27.3 N | 0 0.0 0.0 N | 0 25.9 40.7 0.0
11/20/22 - 1400 39.3 9 -13.9 27.6 N | 0 0.0 0.0 N | 0 25.9 40.7 0.0
11/20/22 - 1300 39.7 10 -11.7 28.0 N | 0 0.0 0.0 N | 0 25.9 40.7 0.0
11/20/22 - 1200 39.9 11 -10.8 28.2 N | 0 0.0 0.0 N | 0 25.9 40.7 0.0
11/20/22 - 1100 39.7 9 -15.0 27.8 N | 0 0.0 0.0 N | 0 25.9 40.7 0.0
11/20/22 - 1000 38.7 10 -12.8 27.3 N | 0 0.0 0.0 N | 0 25.9 40.7 0.0
11/20/22 - 0900 37.4 9 -17.3 26.2 N | 0 0.0 0.0 N | 0 25.9 39.6 0.0
11/20/22 - 0800 33.5 18 -6.4 24.6 N | 0 0.0 0.0 N | 0 25.9 36.7 0.0
11/20/22 - 0700 29.3 32 2.3 22.8 N | 0 0.0 0.0 N | 0 25.9 34.8 0.0
11/20/22 - 0600 30.5 25 -2.7 23.1 N | 0 0.0 0.0 N | 0 25.9 34.8 0.0
11/20/22 - 0500 31.4 21 -5.1 23.4 N | 0 0.0 0.0 N | 0 25.9 34.8 0.0
11/20/22 - 0400 29.6 34 3.0 23.2 N | 0 0.0 0.0 N | 0 25.9 32.0 0.0
11/20/22 - 0300 29.1 36 4.1 23.0 N | 0 0.0 0.0 N | 0 25.9 31.5 0.0
11/20/22 - 0200 28.5 27 -2.5 21.8 N | 0 0.0 0.0 N | 0 25.9 30.6 0.0
11/20/22 - 0100 27.8 30 -0.8 21.4 N | 0 0.0 0.0 N | 0 25.9 29.3 0.0
11/20/22 - 0000 27.1 42 6.5 21.9 N | 0 0.0 0.0 N | 0 13.2 33.9 0.0
11/19/22 - 2300 26.3 45 7.6 21.5 N | 0 0.0 0.0 N | 0 13.2 33.9 0.0
11/19/22 - 2200 25.5 46 7.5 20.9 N | 0 0.0 0.0 N | 0 13.2 33.9 0.0
11/19/22 - 2100 25.1 43 5.5 20.3 N | 0 0.0 0.0 N | 0 13.2 33.9 0.0
11/19/22 - 2000 24.9 43 5.3 20.2 N | 0 0.0 0.0 N | 0 13.2 33.9 0.0
11/19/22 - 1900 25.8 28 -4.0 19.7 N | 0 0.0 0.0 N | 0 13.2 33.9 0.0
11/19/22 - 1800 26.3 22 -7.3 19.6 N | 0 0.0 0.0 N | 0 13.2 33.9 0.0
11/19/22 - 1700 27.2 24 -5.1 20.4 N | 0 0.0 0.0 N | 0 13.2 33.9 0.0
11/19/22 - 1600 29.2 29 0.5 22.4 N | 0 0.0 0.0 N | 0 13.2 33.9 0.0
11/19/22 - 1500 32.8 26 1.2 24.9 N | 0 0.0 0.0 N | 0 13.2 33.9 0.0
11/19/22 - 1400 33.0 24 -0.0 24.9 N | 0 0.0 0.0 N | 4 13.2 33.9 0.0
11/19/22 - 1300 32.7 22 -2.3 24.4 N | 0 0.0 0.0 N | 2 13.2 33.4 0.0
11/19/22 - 1200 32.0 19 -5.8 23.6 N | 0 0.0 0.0 N | 2 13.2 33.1 0.0
11/19/22 - 1100 30.4 17 -8.9 22.3 N | 0 0.0 0.0 N | 0 13.2 32.4 0.0
11/19/22 - 1000 26.8 25 -4.5 20.2 N | 0 0.0 0.0 N | 0 13.2 29.4 0.0
11/19/22 - 0900 24.2 26 -5.7 18.2 N | 0 0.0 0.0 N | 0 13.2 26.3 0.0
11/19/22 - 0800 21.9 27 -7.5 16.4 N | 0 0.0 0.0 N | 0 13.2 23.7 0.0
11/19/22 - 0700 15.9 47 -1.1 12.7 N | 0 0.0 0.0 N | 0 13.2 19.7 0.0
11/19/22 - 0600 15.5 63 5.0 13.3 N | 0 0.0 0.0 N | 0 13.2 19.4 0.0
11/19/22 - 0500 17.1 49 1.1 13.9 N | 0 0.0 0.0 N | 0 13.2 19.4 0.0
11/19/22 - 0400 17.2 55 3.5 14.3 N | 0 0.0 0.0 N | 0 13.2 19.4 0.0
11/19/22 - 0300 17.9 43 -1.5 14.2 N | 0 0.0 0.0 N | 0 13.2 19.4 0.0
11/19/22 - 0200 16.0 63 5.5 13.8 N | 0 0.0 0.0 N | 0 13.2 17.5 0.0
11/19/22 - 0100 15.0 68 6.2 13.1 N | 0 0.0 0.0 N | 0 13.2 16.3 0.0
11/19/22 - 0000 15.3 73 8.1 13.7 N | 0 0.0 0.0 N | 0 14.1 33.7 0.0
11/18/22 - 2300 15.4 79 10.1 14.2 N | 0 0.0 0.0 N | 0 14.1 33.7 0.0
11/18/22 - 2200 15.0 85 11.3 14.1 N | 0 0.0 0.0 N | 0 14.1 33.7 0.0
11/18/22 - 2100 16.4 87 13.2 15.6 N | 0 0.0 0.0 N | 0 15.4 33.7 0.0
11/18/22 - 2000 17.4 83 13.1 16.2 N | 0 0.0 0.0 N | 0 16.0 33.7 0.0
11/18/22 - 1900 18.4 82 13.8 17.2 N | 0 0.0 0.0 N | 0 16.9 33.7 0.0
11/18/22 - 1800 20.2 66 10.5 17.8 N | 0 0.0 0.0 N | 0 18.8 33.7 0.0
11/18/22 - 1700 21.8 58 9.3 18.6 N | 0 0.0 0.0 N | 8 20.3 33.7 0.0
11/18/22 - 1600 24.2 57 11.3 20.7 N | 0 0.0 0.0 N | 10 22.6 33.7 0.0
11/18/22 - 1500 26.4 58 13.8 22.8 N | 0 0.0 0.0 NNE | 18 24.2 33.7 0.0
11/18/22 - 1400 27.8 53 12.8 23.5 N | 0 0.0 0.0 NNE | 21 24.2 33.7 0.0
11/18/22 - 1300 28.2 49 11.6 23.6 N | 0 0.0 0.0 NNE | 17 24.2 33.7 0.0
11/18/22 - 1200 29.3 46 10.9 24.1 N | 0 0.0 0.0 NNE | 17 24.2 33.7 0.0
11/18/22 - 1100 29.3 45 10.6 24.1 N | 0 0.0 0.0 N | 0 24.2 33.7 0.0
11/18/22 - 1000 29.2 41 8.4 23.6 N | 0 0.0 0.0 N | 0 24.2 33.7 0.0
11/18/22 - 0900 27.8 42 7.5 22.5 N | 0 0.0 0.0 N | 0 24.2 33.7 0.0
11/18/22 - 0800 25.0 68 15.9 22.3 N | 0 0.0 0.0 N | 0 24.2 33.7 0.0
11/18/22 - 0700 25.7 53 10.8 21.7 N | 0 0.0 0.0 N | 0 24.4 33.7 0.0
11/18/22 - 0600 26.2 48 9.3 21.7 N | 0 0.0 0.0 N | 0 25.0 33.7 0.0
11/18/22 - 0500 25.8 41 5.0 20.8 N | 0 0.0 0.0 N | 0 25.0 33.7 0.0
11/18/22 - 0400 26.3 31 0.0 20.4 N | 0 0.0 0.0 N | 0 25.3 33.7 0.0
11/18/22 - 0300 27.9 28 -1.3 21.3 N | 0 0.0 0.0 N | 0 26.1 33.7 0.0
11/18/22 - 0200 28.4 28 -0.3 21.8 N | 0 0.0 0.0 N | 0 27.4 33.7 0.0
11/18/22 - 0100 30.0 27 0.1 22.9 N | 0 0.0 0.0 N | 0 27.7 33.7 0.0
11/18/22 - 0000 33.2 23 -0.8 24.9 N | 0 0.0 0.0 N | 0 26.6 48.4 0.0
11/17/22 - 2300 34.1 21 -1.7 25.4 N | 0 0.0 0.0 N | 0 26.6 48.4 0.0
11/17/22 - 2200 34.8 27 4.0 26.6 N | 0 0.0 0.0 N | 0 26.6 48.4 0.0
11/17/22 - 2100 35.4 25 3.3 26.9 N | 0 0.0 0.0 N | 0 26.6 48.4 0.0
11/17/22 - 2000 36.1 31 8.1 28.1 N | 0 0.0 0.0 N | 0 26.6 48.4 0.0
11/17/22 - 1900 36.7 31 9.1 28.6 N | 0 0.0 0.0 N | 0 26.6 48.4 0.0
11/17/22 - 1800 38.4 25 5.4 29.1 N | 0 0.0 0.0 N | 0 26.6 48.4 0.0
11/17/22 - 1700 39.8 24 6.1 30.0 N | 0 0.0 0.0 NNE | 31 26.6 48.4 0.0
11/17/22 - 1600 40.7 20 2.1 30.0 N | 0 0.0 0.0 NE | 44 26.6 48.4 0.0
11/17/22 - 1500 44.0 17 2.4 32.0 N | 0 0.0 0.0 N | 6 26.6 48.4 0.0
11/17/22 - 1400 45.3 15 0.7 32.5 N | 0 0.0 0.0 N | 8 26.6 48.4 0.0
11/17/22 - 1300 46.8 13 -2.2 33.0 N | 0 0.0 0.0 N | 2 26.6 48.4 0.0
11/17/22 - 1200 44.7 17 2.9 32.4 N | 0 0.0 0.0 N | 0 26.6 48.4 0.0
11/17/22 - 1100 42.9 18 2.4 31.4 N | 0 0.0 0.0 N | 4 26.6 44.7 0.0
11/17/22 - 1000 41.9 18 1.2 30.6 N | 0 0.0 0.0 N | 0 26.6 44.7 0.0
11/17/22 - 0900 38.2 18 -1.2 28.0 N | 0 0.0 0.0 N | 0 26.6 40.7 0.0
11/17/22 - 0800 33.8 20 -2.7 25.1 N | 0 0.0 0.0 N | 0 26.6 37.8 0.0
11/17/22 - 0700 29.5 25 -2.2 22.3 N | 0 0.0 0.0 N | 0 26.6 31.2 0.0
11/17/22 - 0600 29.5 24 -3.1 22.2 N | 0 0.0 0.0 N | 0 26.6 31.2 0.0
11/17/22 - 0500 29.2 24 -3.2 22.0 N | 0 0.0 0.0 N | 0 26.6 30.1 0.0
11/17/22 - 0400 28.7 24 -4.1 21.5 N | 0 0.0 0.0 N | 0 26.6 30.1 0.0
11/17/22 - 0300 28.9 23 -4.3 21.6 N | 0 0.0 0.0 N | 0 26.6 30.1 0.0
11/17/22 - 0200 28.3 23 -5.3 21.1 N | 0 0.0 0.0 N | 0 26.6 30.1 0.0
11/17/22 - 0100 28.1 22 -5.5 21.0 N | 0 0.0 0.0 N | 0 27.0 29.4 0.0
11/17/22 - 0000 28.7 21 -6.3 21.3 N | 0 0.0 0.0 N | 0 18.3 38.2 0.0
11/16/22 - 2300 29.2 21 -6.0 21.7 N | 0 0.0 0.0 N | 0 18.3 38.2 0.0
11/16/22 - 2200 28.7 23 -4.7 21.5 N | 0 0.0 0.0 N | 0 18.3 38.2 0.0
11/16/22 - 2100 28.8 24 -3.9 21.6 N | 0 0.0 0.0 N | 0 18.3 38.2 0.0
11/16/22 - 2000 29.5 23 -4.0 22.1 N | 0 0.0 0.0 N | 0 18.3 38.2 0.0
11/16/22 - 1900 28.7 25 -2.9 21.7 N | 0 0.0 0.0 N | 0 18.3 38.2 0.0
11/16/22 - 1800 28.4 27 -1.4 21.6 N | 0 0.0 0.0 N | 0 18.3 38.2 0.0
11/16/22 - 1700 29.3 26 -1.0 22.3 N | 0 0.0 0.0 N | 0 18.3 38.2 0.0
11/16/22 - 1600 32.5 25 0.6 24.6 N | 0 0.0 0.0 N | 4 18.3 38.2 0.0
11/16/22 - 1500 36.4 19 -2.0 26.8 N | 0 0.0 0.0 N | 11 18.3 38.2 0.0
11/16/22 - 1400 36.2 15 -7.1 26.2 N | 0 0.0 0.0 N | 5 18.3 38.2 0.0
11/16/22 - 1300 35.6 17 -5.4 26.0 N | 0 0.0 0.0 N | 10 18.3 36.4 0.0
11/16/22 - 1200 34.8 15 -8.5 25.2 N | 0 0.0 0.0 N | 7 18.3 36.0 0.0
11/16/22 - 1100 34.0 13 -11.8 24.4 N | 0 0.0 0.0 N | 11 18.3 35.2 0.0
11/16/22 - 1000 32.6 13 -13.4 23.4 N | 0 0.0 0.0 N | 0 18.3 34.6 0.0
11/16/22 - 0900 29.2 14 -14.2 21.0 N | 0 0.0 0.0 N | 0 18.3 31.2 0.0
11/16/22 - 0800 27.2 12 -18.8 19.3 N | 0 0.0 0.0 N | 0 18.3 29.1 0.0
11/16/22 - 0700 23.5 14 -18.4 16.7 N | 0 0.0 0.0 N | 0 18.3 24.8 0.0
11/16/22 - 0600 23.1 16 -17.0 16.5 N | 0 0.0 0.0 N | 0 18.3 24.2 0.0
11/16/22 - 0500 23.3 17 -15.0 16.8 N | 0 0.0 0.0 N | 0 18.3 24.2 0.0
11/16/22 - 0400 21.8 25 -9.2 16.1 N | 0 0.0 0.0 N | 0 18.3 23.7 0.0
11/16/22 - 0300 20.8 36 -2.3 16.2 N | 0 0.0 0.0 N | 0 18.3 23.1 0.0
11/16/22 - 0200 19.6 48 2.9 16.0 N | 0 0.0 0.0 N | 0 18.3 23.1 0.0
11/16/22 - 0100 20.3 49 4.3 16.7 N | 0 0.0 0.0 N | 0 18.4 23.1 0.0
11/16/22 - 0000 19.8 51 4.6 16.4 N | 0 0.0 0.0 N | 0 13.8 29.5 0.0
11/15/22 - 2300 20.3 47 3.3 16.5 N | 0 0.0 0.0 N | 0 13.8 29.5 0.0
11/15/22 - 2200 20.0 48 3.3 16.3 N | 0 0.0 0.0 N | 0 13.8 29.5 0.0
11/15/22 - 2100 20.6 42 0.9 16.4 N | 0 0.0 0.0 N | 0 13.8 29.5 0.0
11/15/22 - 2000 20.5 49 4.5 16.9 N | 0 0.0 0.0 N | 0 13.8 29.5 0.0
11/15/22 - 1900 19.8 57 7.0 16.8 N | 0 0.0 0.0 N | 0 13.8 29.5 0.0
11/15/22 - 1800 20.2 59 8.2 17.3 N | 0 0.0 0.0 N | 0 13.8 29.5 0.0
11/15/22 - 1700 22.0 56 8.7 18.7 N | 0 0.0 0.0 N | 0 13.8 29.5 0.0
11/15/22 - 1600 24.6 54 10.2 20.8 N | 0 0.0 0.0 NNE | 18 13.8 29.5 0.0
11/15/22 - 1500 26.8 56 13.3 23.0 N | 0 0.0 0.0 NNE | 21 13.8 29.5 0.0
11/15/22 - 1400 27.4 54 13.2 23.3 N | 0 0.0 0.0 NNE | 16 13.8 29.5 0.0
11/15/22 - 1300 27.7 50 11.7 23.3 N | 0 0.0 0.0 NNE | 33 13.8 29.5 0.0
11/15/22 - 1200 25.0 61 13.4 21.7 N | 0 0.0 0.0 NNE | 28 13.8 27.0 0.0
11/15/22 - 1100 24.0 65 13.8 21.1 N | 0 0.0 0.0 NNE | 26 13.8 25.6 0.0
11/15/22 - 1000 22.4 71 14.5 20.2 N | 0 0.0 0.0 N | 0 13.8 24.2 0.0
11/15/22 - 0900 17.6 86 14.1 16.6 N | 0 0.0 0.0 N | 0 13.8 21.0 0.0
11/15/22 - 0800 14.7 94 13.2 14.4 N | 0 0.0 0.0 N | 0 13.8 20.3 0.0
11/15/22 - 0700 15.6 91 13.5 15.1 N | 0 0.0 0.0 N | 0 14.9 20.3 0.0
11/15/22 - 0600 17.5 80 12.2 16.2 N | 0 0.0 0.0 N | 0 15.8 20.3 0.0
11/15/22 - 0500 18.6 70 10.3 16.5 N | 0 0.0 0.0 N | 0 17.5 20.3 0.0
11/15/22 - 0400 18.7 71 10.7 16.7 N | 0 0.0 0.0 N | 0 17.5 20.3 0.0
11/15/22 - 0300 19.0 69 10.6 16.9 N | 0 0.0 0.0 N | 0 18.0 20.3 0.0
11/15/22 - 0200 18.6 73 11.4 16.8 N | 0 0.0 0.0 N | 0 18.0 20.3 0.0
11/15/22 - 0100 19.2 68 10.2 16.9 N | 0 0.0 0.0 N | 0 18.1 20.3 0.0
11/15/22 - 0000 20.4 62 9.6 17.7 N | 0 0.0 0.0 N | 0 19.8 39.2 0.0
11/14/22 - 2300 20.9 59 8.8 17.9 N | 0 0.0 0.0 N | 0 20.5 39.2 0.0
11/14/22 - 2200 22.0 57 8.9 18.7 N | 0 0.0 0.0 N | 0 20.5 39.2 0.0
11/14/22 - 2100 21.7 53 7.0 18.1 N | 0 0.0 0.0 N | 0 20.5 39.2 0.0
11/14/22 - 2000 22.3 51 7.0 18.6 N | 0 0.0 0.0 N | 0 21.6 39.2 0.0
11/14/22 - 1900 23.2 50 7.2 19.3 N | 0 0.0 0.0 N | 0 22.7 39.2 0.0
11/14/22 - 1800 24.1 45 5.6 19.6 N | 0 0.0 0.0 N | 0 23.7 39.2 0.0
11/14/22 - 1700 25.6 44 6.9 20.9 N | 0 0.0 0.0 N | 0 24.5 39.2 0.0
11/14/22 - 1600 28.2 39 6.5 22.6 N | 0 0.0 0.0 N | 10 26.5 39.2 0.0
11/14/22 - 1500 31.1 34 6.1 24.5 N | 0 0.0 0.0 N | 0 30.2 39.2 0.0
11/14/22 - 1400 33.6 29 4.9 25.9 N | 0 0.0 0.0 N | 8 30.6 39.2 0.0
11/14/22 - 1300 34.1 27 3.7 26.1 N | 0 0.0 0.0 N | 3 31.3 39.2 0.0
11/14/22 - 1200 36.9 23 2.9 27.8 N | 0 0.0 0.0 N | 6 32.1 39.2 0.0
11/14/22 - 1100 35.8 23 1.4 26.8 N | 0 0.0 0.0 N | 0 32.5 39.2 0.0
11/14/22 - 1000 38.2 19 -0.2 28.2 N | 0 0.0 0.0 N | 0 37.4 39.2 0.0
11/14/22 - 0900 36.2 16 -5.5 26.4 N | 0 0.0 0.0 N | 0 19.4 38.0 0.0
11/14/22 - 0800 34.7 17 -6.3 25.3 N | 0 0.0 0.0 N | 0 19.4 36.2 0.0
11/14/22 - 0700 29.7 21 -5.6 22.1 N | 0 0.0 0.0 N | 0 19.4 32.7 0.0
11/14/22 - 0600 26.0 27 -3.3 19.8 N | 0 0.0 0.0 N | 0 19.4 28.1 0.0
11/14/22 - 0500 23.2 35 -0.4 18.2 N | 0 0.0 0.0 N | 0 19.4 25.1 0.0
11/14/22 - 0400 21.8 38 -0.1 17.2 N | 0 0.0 0.0 N | 0 19.4 24.3 0.0
11/14/22 - 0300 21.1 38 -0.3 16.6 N | 0 0.0 0.0 N | 0 19.4 24.3 0.0
11/14/22 - 0200 21.3 37 -1.2 16.7 N | 0 0.0 0.0 N | 0 19.4 24.3 0.0
11/14/22 - 0100 23.2 32 -2.0 18.0 N | 0 0.0 0.0 N | 0 22.0 24.3 0.0
11/14/22 - 0000 23.1 32 -2.4 17.8 N | 0 0.0 0.0 N | 0 13.2 26.2 0.0
11/13/22 - 2300 22.9 31 -3.2 17.6 N | 0 0.0 0.0 N | 0 13.2 26.2 0.0
11/13/22 - 2200 22.8 30 -3.8 17.4 N | 0 0.0 0.0 N | 0 13.2 26.2 0.0
11/13/22 - 2100 22.4 27 -6.5 16.8 N | 0 0.0 0.0 N | 0 13.2 26.2 0.0
11/13/22 - 2000 21.4 29 -5.9 16.2 N | 0 0.0 0.0 N | 0 13.2 26.2 0.0
11/13/22 - 1900 20.4 33 -4.4 15.6 N | 0 0.0 0.0 N | 0 13.2 26.2 0.0
11/13/22 - 1800 21.2 33 -3.4 16.3 N | 0 0.0 0.0 N | 0 13.2 26.2 0.0
11/13/22 - 1700 21.1 35 -2.5 16.3 N | 0 0.0 0.0 N | 0 13.2 26.2 0.0
11/13/22 - 1600 22.6 35 -1.2 17.6 N | 0 0.0 0.0 N | 0 13.2 26.2 0.0
11/13/22 - 1500 24.8 31 -1.5 19.1 N | 0 0.0 0.0 N | 0 13.2 26.2 0.0
11/13/22 - 1400 23.8 33 -1.0 18.5 N | 0 0.0 0.0 N | 0 13.2 24.7 0.0
11/13/22 - 1300 22.6 47 5.5 18.6 N | 0 0.0 0.0 N | 0 13.2 23.5 0.0
11/13/22 - 1200 20.1 62 9.1 17.4 N | 0 0.0 0.0 N | 0 13.2 20.9 0.0
11/13/22 - 1100 16.2 87 13.0 15.4 N | 0 0.0 0.0 N | 0 13.2 19.2 0.0
11/13/22 - 1000 14.9 90 12.6 14.4 N | 0 0.0 0.0 N | 0 13.2 18.1 0.0
11/13/22 - 0900 13.9 91 11.9 13.5 N | 0 0.0 0.0 N | 0 13.2 18.1 0.0
11/13/22 - 0800 13.6 92 11.7 13.2 N | 0 0.0 0.0 N | 0 13.2 18.1 0.0
11/13/22 - 0700 13.8 92 12.0 13.4 N | 0 0.0 0.0 N | 0 13.2 18.1 0.0
11/13/22 - 0600 13.6 92 11.7 13.2 N | 0 0.0 0.0 N | 0 13.2 18.1 0.0
11/13/22 - 0500 14.1 92 12.3 13.7 N | 0 0.0 0.0 N | 0 14.0 18.1 0.0
11/13/22 - 0400 14.6 93 12.9 14.2 N | 0 0.0 0.0 N | 0 14.4 18.1 0.0
11/13/22 - 0300 15.5 91 13.4 15.0 N | 0 0.0 0.0 N | 0 14.6 18.1 0.0
11/13/22 - 0200 17.4 81 12.6 16.2 N | 0 0.0 0.0 N | 0 15.7 18.1 0.0
11/13/22 - 0100 17.8 82 13.2 16.6 N | 0 0.0 0.0 N | 0 17.5 18.1 0.0
11/13/22 - 0000 17.9 85 14.1 16.9 N | 0 0.0 0.0 N | 0 17.9 32.3 0.0
11/12/22 - 2300 18.0 86 14.5 17.1 N | 0 0.0 0.0 N | 0 17.9 32.3 0.0
11/12/22 - 2200 18.7 82 14.0 17.4 N | 0 0.0 0.0 N | 0 18.2 32.3 0.0
11/12/22 - 2100 18.8 78 13.2 17.3 N | 0 0.0 0.0 N | 0 18.6 32.3 0.0
11/12/22 - 2000 19.1 81 14.4 17.8 N | 0 0.0 0.0 N | 0 19.0 32.3 0.0
11/12/22 - 1900 19.8 80 14.7 18.4 N | 0 0.0 0.0 N | 0 19.3 32.3 0.0
11/12/22 - 1800 20.7 80 15.4 19.2 N | 0 0.0 0.0 N | 0 20.3 32.3 0.0
11/12/22 - 1700 21.9 76 15.5 20.0 N | 0 0.0 0.0 N | 0 21.1 32.3 0.0
11/12/22 - 1600 23.7 62 12.5 20.6 N | 0 0.0 0.0 N | 0 22.4 32.3 0.0
11/12/22 - 1500 25.8 45 7.6 21.1 N | 0 0.0 0.0 N | 0 24.1 32.3 0.0
11/12/22 - 1400 26.9 39 5.0 21.5 N | 0 0.0 0.0 N | 0 24.1 32.3 0.0
11/12/22 - 1300 27.2 31 0.6 21.0 N | 0 0.0 0.0 N | 0 24.1 32.3 0.0
11/12/22 - 1200 27.3 26 -3.2 20.7 N | 0 0.0 0.0 N | 0 24.1 32.3 0.0
11/12/22 - 1100 27.3 23 -5.9 20.4 N | 0 0.0 0.0 N | 0 24.1 32.3 0.0
11/12/22 - 1000 26.8 23 -6.1 20.0 N | 0 0.0 0.0 N | 0 24.1 32.3 0.0
11/12/22 - 0900 27.0 27 -2.2 20.6 N | 0 0.0 0.0 N | 0 24.1 32.3 0.0
11/12/22 - 0800 26.7 26 -3.8 20.2 N | 0 0.0 0.0 N | 0 24.1 32.3 0.0
11/12/22 - 0700 24.8 27 -4.2 18.8 N | 0 0.0 0.0 N | 0 24.1 32.3 0.0
11/12/22 - 0600 25.5 32 -0.2 19.8 N | 0 0.0 0.0 N | 0 24.8 32.3 0.0
11/12/22 - 0500 27.4 36 3.8 21.7 N | 0 0.0 0.0 N | 0 25.8 32.3 0.0
11/12/22 - 0400 29.5 25 -2.3 22.3 N | 0 0.0 0.0 N | 0 28.2 32.3 0.0
11/12/22 - 0300 30.8 23 -3.1 23.1 N | 0 0.0 0.0 N | 0 29.0 32.3 0.0
11/12/22 - 0200 29.6 24 -3.0 22.3 N | 0 0.0 0.0 N | 0 29.0 32.3 0.0
11/12/22 - 0100 31.0 35 6.3 24.5 N | 0 0.0 0.0 N | 0 29.5 32.3 0.0
11/12/22 - 0000 31.6 41 10.8 25.7 N | 0 0.0 0.0 N | 0 24.0 40.7 0.0
11/11/22 - 2300 32.3 41 11.0 26.1 N | 0 0.0 0.0 N | 0 24.0 40.7 0.0
11/11/22 - 2200 33.4 35 8.4 26.4 N | 0 0.0 0.0 N | 0 24.0 40.7 0.0
11/11/22 - 2100 33.8 33 7.7 26.5 N | 0 0.0 0.0 N | 0 24.0 40.7 0.0
11/11/22 - 2000 33.1 36 9.0 26.3 N | 0 0.0 0.0 N | 0 24.0 40.7 0.0
11/11/22 - 1900 29.6 31 2.7 23.0 N | 0 0.0 0.0 N | 0 24.0 40.7 0.0
11/11/22 - 1800 29.9 34 4.7 23.5 N | 0 0.0 0.0 N | 0 24.0 40.7 0.0
11/11/22 - 1700 30.7 37 7.6 24.5 N | 0 0.0 0.0 N | 0 24.0 40.7 0.0
11/11/22 - 1600 31.9 37 8.8 25.5 N | 0 0.0 0.0 N | 0 24.0 40.7 0.0
11/11/22 - 1500 36.7 21 -1.4 27.2 N | 0 0.0 0.0 N | 0 24.0 40.7 0.0
11/11/22 - 1400 38.5 14 -6.2 27.7 N | 0 0.0 0.0 N | 0 24.0 40.7 0.0
11/11/22 - 1300 39.1 21 1.8 29.0 N | 0 0.0 0.0 N | 0 24.0 40.6 0.0
11/11/22 - 1200 36.1 22 1.3 27.1 N | 0 0.0 0.0 N | 0 24.0 39.3 0.0
11/11/22 - 1100 33.9 23 -0.5 25.4 N | 0 0.0 0.0 N | 0 24.0 35.7 0.0
11/11/22 - 1000 33.6 23 -0.7 25.2 N | 0 0.0 0.0 N | 0 24.0 35.3